Kaisei Maru — JD3114 — position and weather

sailwx.info

Track history (hours):
 
Tides and Currents Weather Stations Pressure Air Temp Water Temp Dewpoint Dewpoint Depression Visibility Wind Speed Wind Dir Waves Ship Positions

Kaisei Maru

Last reported at 2015-May-28 01:33 UTC. Time now 2015-May-28 02:06 UTC.
Position N 34°39' E 135°10'.

Length 52 m; draft 3.7 m.

Type: Tanker. MMSI: 431001837.

Date/timePositionNaut miles runAvg speedWind from/ knotsBaromVisibWave heightAir tempDewpointWater temp
2015-May-28 01:33N 34°39' E 135°10'0 0.0
2015-May-28 00:33N 34°39' E 135°10'0 0.0
2015-May-27 23:34N 34°39' E 135°10'1 1.1
2015-May-27 22:33N 34°38' E 135°10'0 0.0
2015-May-27 21:33N 34°38' E 135°10'0 0.0
2015-May-27 20:34N 34°38' E 135°10'0 0.0
2015-May-27 19:34N 34°38' E 135°10'0 0.0
2015-May-27 18:34N 34°38' E 135°10'0 0.0
2015-May-27 17:33N 34°38' E 135°10'0 0.0
2015-May-27 16:34N 34°38' E 135°10'0 0.0
2015-May-27 15:33N 34°38' E 135°10'0 0.0
2015-May-27 14:33N 34°38' E 135°10'4 3.6
2015-May-27 13:34N 34°34' E 135°09'9 9.4
2015-May-27 12:34N 34°26' E 135°04'9 9.4
2015-May-27 11:34N 34°17' E 134°60'9 9.1
2015-May-27 10:33N 34°08' E 134°58'  
2015-May-21 11:33N 34°08' E 134°55'11 9.3
2015-May-21 10:25N 34°18' E 134°58'8 8.7
2015-May-21 09:30N 34°25' E 135°04'1010.2
2015-May-21 08:33N 34°31' E 135°13'9 9.4
2015-May-21 07:33N 34°38' E 135°20'5 5.0
2015-May-21 06:30N 34°42' E 135°24'0 0.0
2015-May-21 05:33N 34°42' E 135°24'0 0.0
2015-May-21 04:29N 34°42' E 135°24'2 1.1
2015-May-21 02:33N 34°40' E 135°23'9 9.1
2015-May-21 01:33N 34°32' E 135°18'6 4.6
2015-May-21 00:11N 34°26' E 135°19'0 0.0
2015-May-20 23:13N 34°26' E 135°19'1 0.8
2015-May-20 22:32N 34°26' E 135°19'0 0.0
2015-May-20 21:33N 34°26' E 135°19'0 0.0
2015-May-20 20:28N 34°26' E 135°19'0 0.0
2015-May-20 19:33N 34°26' E 135°19'0 0.0
2015-May-20 18:32N 34°26' E 135°19'0 0.0
2015-May-20 17:06N 34°26' E 135°19'0 0.0
2015-May-20 16:33N 34°26' E 135°19'0 0.0
2015-May-20 15:33N 34°26' E 135°19'0 0.0
2015-May-20 14:33N 34°26' E 135°19'0 0.0
2015-May-20 13:18N 34°26' E 135°19'0 0.0
2015-May-20 12:33N 34°26' E 135°19'0 0.0
2015-May-20 11:33N 34°26' E 135°19'0 0.0
2015-May-20 10:32N 34°26' E 135°19'3 2.8
2015-May-20 09:32N 34°29' E 135°19'1010.5
2015-May-20 08:33N 34°39' E 135°24'2 2.1
2015-May-20 07:31N 34°40' E 135°27'0 0.0
2015-May-20 06:32N 34°40' E 135°27'5 5.3
2015-May-20 05:32N 34°35' E 135°23'4 4.6
2015-May-20 04:33N 34°31' E 135°25'0 0.0
2015-May-20 03:33N 34°31' E 135°25'0 0.0
2015-May-20 02:16N 34°31' E 135°25'0 0.0
2015-May-20 00:30N 34°31' E 135°25'1 1.0
2015-May-19 23:33N 34°32' E 135°24'9 8.8
2015-May-19 22:33N 34°38' E 135°16'5 4.8
2015-May-19 21:33N 34°41' E 135°12'0 0.0
2015-May-19 20:33N 34°41' E 135°12'0 0.0
2015-May-19 19:34N 34°41' E 135°12'0 0.0
2015-May-19 18:33N 34°41' E 135°12'0 0.0
2015-May-19 17:33N 34°41' E 135°12'0 0.0
2015-May-19 16:33N 34°41' E 135°12'0 0.0
2015-May-19 15:34N 34°41' E 135°12'0 0.0
2015-May-19 14:33N 34°41' E 135°12'0 0.0
2015-May-19 13:33N 34°41' E 135°12'0 0.0
2015-May-19 12:34N 34°41' E 135°12'0 0.0
2015-May-19 11:33N 34°41' E 135°12'0 0.0
2015-May-19 10:33N 34°41' E 135°12'0 0.0
2015-May-19 09:33N 34°41' E 135°12'1 0.7
2015-May-19 08:34N 34°41' E 135°13'4 3.8
2015-May-19 07:34N 34°40' E 135°18'0 0.1
2015-May-19 06:34N 34°40' E 135°18'0 0.0
2015-May-19 05:34N 34°40' E 135°18'0 0.1
2015-May-19 04:33N 34°40' E 135°18'1 0.7
2015-May-19 03:34N 34°40' E 135°18'5 4.6
2015-May-19 02:34N 34°41' E 135°12'0 0.0
2015-May-19 01:34N 34°41' E 135°12'0 0.0
2015-May-19 00:33N 34°41' E 135°12'0 0.0
2015-May-18 23:34N 34°41' E 135°12'0 0.0
2015-May-18 22:33N 34°41' E 135°12'0 0.0
2015-May-18 21:33N 34°41' E 135°12'0 0.0
2015-May-18 20:34N 34°41' E 135°12'0 0.0
2015-May-18 19:34N 34°41' E 135°12'0 0.0
2015-May-18 18:34N 34°41' E 135°12'0 0.0
2015-May-18 17:33N 34°41' E 135°12'0 0.0
2015-May-18 16:34N 34°41' E 135°12'0 0.0
2015-May-18 15:33N 34°41' E 135°12'0 0.0
2015-May-18 14:34N 34°41' E 135°12'0 0.0
2015-May-18 13:34N 34°41' E 135°12'0 0.0
2015-May-18 12:33N 34°41' E 135°12'0 0.0
2015-May-18 11:34N 34°41' E 135°12'0 0.5
2015-May-18 10:34N 34°41' E 135°13'4 4.1
2015-May-18 09:33N 34°37' E 135°11'2 2.4
2015-May-18 08:34N 34°40' E 135°12'0 0.0
2015-May-18 07:34N 34°39' E 135°12'0 0.1
2015-May-18 06:34N 34°40' E 135°12'0 0.0
2015-May-18 05:33N 34°40' E 135°12'0 0.1
2015-May-18 04:34N 34°39' E 135°12'0 0.0
2015-May-18 03:34N 34°40' E 135°12'0 0.0
2015-May-18 02:34N 34°39' E 135°12'5 5.4
2015-May-18 01:34N 34°41' E 135°18'  
Track history (hours):
 
Tides and Currents Weather Stations Pressure Air Temp Water Temp Dewpoint Dewpoint Depression Visibility Wind Speed Wind Dir Waves Ship Positions

Kaisei Maru

Last reported at 2015-May-28 01:33 UTC. Time now 2015-May-28 02:06 UTC.
Position N 34°39' E 135°10'.

Length 52 m; draft 3.7 m.

Type: Tanker. MMSI: 431001837.

Date/timePositionNaut miles runAvg speedWind from/ knotsBaromVisibWave heightAir tempDewpointWater temp
2015-May-28 01:33N 34°39' E 135°10'0 0.0
2015-May-28 00:33N 34°39' E 135°10'0 0.0
2015-May-27 23:34N 34°39' E 135°10'1 1.1
2015-May-27 22:33N 34°38' E 135°10'0 0.0
2015-May-27 21:33N 34°38' E 135°10'0 0.0
2015-May-27 20:34N 34°38' E 135°10'0 0.0
2015-May-27 19:34N 34°38' E 135°10'0 0.0
2015-May-27 18:34N 34°38' E 135°10'0 0.0
2015-May-27 17:33N 34°38' E 135°10'0 0.0
2015-May-27 16:34N 34°38' E 135°10'0 0.0
2015-May-27 15:33N 34°38' E 135°10'0 0.0
2015-May-27 14:33N 34°38' E 135°10'4 3.6
2015-May-27 13:34N 34°34' E 135°09'9 9.4
2015-May-27 12:34N 34°26' E 135°04'9 9.4
2015-May-27 11:34N 34°17' E 134°60'9 9.1
2015-May-27 10:33N 34°08' E 134°58'  
2015-May-21 11:33N 34°08' E 134°55'11 9.3
2015-May-21 10:25N 34°18' E 134°58'8 8.7
2015-May-21 09:30N 34°25' E 135°04'1010.2
2015-May-21 08:33N 34°31' E 135°13'9 9.4
2015-May-21 07:33N 34°38' E 135°20'5 5.0
2015-May-21 06:30N 34°42' E 135°24'0 0.0
2015-May-21 05:33N 34°42' E 135°24'0 0.0
2015-May-21 04:29N 34°42' E 135°24'2 1.1
2015-May-21 02:33N 34°40' E 135°23'9 9.1
2015-May-21 01:33N 34°32' E 135°18'6 4.6
2015-May-21 00:11N 34°26' E 135°19'0 0.0
2015-May-20 23:13N 34°26' E 135°19'1 0.8
2015-May-20 22:32N 34°26' E 135°19'0 0.0
2015-May-20 21:33N 34°26' E 135°19'0 0.0
2015-May-20 20:28N 34°26' E 135°19'0 0.0
2015-May-20 19:33N 34°26' E 135°19'0 0.0
2015-May-20 18:32N 34°26' E 135°19'0 0.0
2015-May-20 17:06N 34°26' E 135°19'0 0.0
2015-May-20 16:33N 34°26' E 135°19'0 0.0
2015-May-20 15:33N 34°26' E 135°19'0 0.0
2015-May-20 14:33N 34°26' E 135°19'0 0.0
2015-May-20 13:18N 34°26' E 135°19'0 0.0
2015-May-20 12:33N 34°26' E 135°19'0 0.0
2015-May-20 11:33N 34°26' E 135°19'0 0.0
2015-May-20 10:32N 34°26' E 135°19'3 2.8
2015-May-20 09:32N 34°29' E 135°19'1010.5
2015-May-20 08:33N 34°39' E 135°24'2 2.1
2015-May-20 07:31N 34°40' E 135°27'0 0.0
2015-May-20 06:32N 34°40' E 135°27'5 5.3
2015-May-20 05:32N 34°35' E 135°23'4 4.6
2015-May-20 04:33N 34°31' E 135°25'0 0.0
2015-May-20 03:33N 34°31' E 135°25'0 0.0
2015-May-20 02:16N 34°31' E 135°25'0 0.0
2015-May-20 00:30N 34°31' E 135°25'1 1.0
2015-May-19 23:33N 34°32' E 135°24'9 8.8
2015-May-19 22:33N 34°38' E 135°16'5 4.8
2015-May-19 21:33N 34°41' E 135°12'0 0.0
2015-May-19 20:33N 34°41' E 135°12'0 0.0
2015-May-19 19:34N 34°41' E 135°12'0 0.0
2015-May-19 18:33N 34°41' E 135°12'0 0.0
2015-May-19 17:33N 34°41' E 135°12'0 0.0
2015-May-19 16:33N 34°41' E 135°12'0 0.0
2015-May-19 15:34N 34°41' E 135°12'0 0.0
2015-May-19 14:33N 34°41' E 135°12'0 0.0
2015-May-19 13:33N 34°41' E 135°12'0 0.0
2015-May-19 12:34N 34°41' E 135°12'0 0.0
2015-May-19 11:33N 34°41' E 135°12'0 0.0
2015-May-19 10:33N 34°41' E 135°12'0 0.0
2015-May-19 09:33N 34°41' E 135°12'1 0.7
2015-May-19 08:34N 34°41' E 135°13'4 3.8
2015-May-19 07:34N 34°40' E 135°18'0 0.1
2015-May-19 06:34N 34°40' E 135°18'0 0.0
2015-May-19 05:34N 34°40' E 135°18'0 0.1
2015-May-19 04:33N 34°40' E 135°18'1 0.7
2015-May-19 03:34N 34°40' E 135°18'5 4.6
2015-May-19 02:34N 34°41' E 135°12'0 0.0
2015-May-19 01:34N 34°41' E 135°12'0 0.0
2015-May-19 00:33N 34°41' E 135°12'0 0.0
2015-May-18 23:34N 34°41' E 135°12'0 0.0
2015-May-18 22:33N 34°41' E 135°12'0 0.0
2015-May-18 21:33N 34°41' E 135°12'0 0.0
2015-May-18 20:34N 34°41' E 135°12'0 0.0
2015-May-18 19:34N 34°41' E 135°12'0 0.0
2015-May-18 18:34N 34°41' E 135°12'0 0.0
2015-May-18 17:33N 34°41' E 135°12'0 0.0
2015-May-18 16:34N 34°41' E 135°12'0 0.0
2015-May-18 15:33N 34°41' E 135°12'0 0.0
2015-May-18 14:34N 34°41' E 135°12'0 0.0
2015-May-18 13:34N 34°41' E 135°12'0 0.0
2015-May-18 12:33N 34°41' E 135°12'0 0.0
2015-May-18 11:34N 34°41' E 135°12'0 0.5
2015-May-18 10:34N 34°41' E 135°13'4 4.1
2015-May-18 09:33N 34°37' E 135°11'2 2.4
2015-May-18 08:34N 34°40' E 135°12'0 0.0
2015-May-18 07:34N 34°39' E 135°12'0 0.1
2015-May-18 06:34N 34°40' E 135°12'0 0.0
2015-May-18 05:33N 34°40' E 135°12'0 0.1
2015-May-18 04:34N 34°39' E 135°12'0 0.0
2015-May-18 03:34N 34°40' E 135°12'0 0.0
2015-May-18 02:34N 34°39' E 135°12'5 5.4
2015-May-18 01:34N 34°41' E 135°18'  

Dump ship's entire track history